Time;durP1;ratioP1;P1;durP2;ratioP2;P2;SDS_P1;SDS_P2;PMS_P1;PMS_P2;Temp;Humidity;BMP_temperature;BMP_pressure;BME280_temperature;BME280_humidity;BME280_pressure;Samples;Min_cycle;Max_cycle;Signal;HPM_P1;HPM_P2
2023/04/14 00:00:09;;;;;;;;;;;8.60;99.90;;;;;;5075439;28;19908;-73
2023/04/14 00:02:34;;;;;;;;;;;8.70;99.90;;;;;;5074377;28;19973;-73
2023/04/14 00:05:00;;;;;;;;;;;8.70;99.90;;;;;;5075451;28;19944;-74
2023/04/14 00:07:26;;;;;;;;;;;8.80;99.90;;;;;;5075435;28;19916;-73
2023/04/14 00:09:51;;;;;;;;;;;8.90;99.90;;;;;;5076243;28;19932;-72
2023/04/14 00:12:17;;;;;;;;;;;8.90;99.90;;;;;;5075201;28;19935;-74
2023/04/14 00:14:43;;;;;;;;;;;9.00;99.90;;;;;;5075972;28;20268;-73
2023/04/14 00:17:08;;;;;;;;;;;9.00;99.90;;;;;;5075798;28;19940;-72
2023/04/14 00:19:34;;;;;;;;;;;9.00;99.90;;;;;;5076699;28;20004;-73
2023/04/14 00:22:00;;;;;;;;;;;8.90;99.90;;;;;;5077524;28;19963;-72
2023/04/14 00:24:25;;;;;;;;;;;8.90;99.90;;;;;;5076838;28;19916;-73
2023/04/14 00:26:51;;;;;;;;;;;8.90;99.90;;;;;;5076621;28;19909;-76
2023/04/14 00:29:16;;;;;;;;;;;8.90;99.90;;;;;;5077532;28;19908;-74
2023/04/14 00:31:42;;;;;;;;;;;8.90;99.90;;;;;;5077009;28;19912;-73
2023/04/14 00:34:08;;;;;;;;;;;8.90;99.90;;;;;;5075898;28;19916;-74
2023/04/14 00:36:33;;;;;;;;;;;8.80;99.90;;;;;;5074972;28;19909;-73
2023/04/14 00:38:59;;;;;;;;;;;8.80;99.90;;;;;;5076227;28;19908;-74
2023/04/14 00:41:25;;;;;;;;;;;8.70;99.90;;;;;;5075142;28;20278;-73
2023/04/14 00:43:54;;;;;;;;;;;8.70;99.90;;;;;;5074489;28;20080;-73
2023/04/14 00:46:20;;;;;;;;;;;8.70;99.90;;;;;;5075375;28;19913;-72
2023/04/14 00:48:46;;;;;;;;;;;8.60;99.90;;;;;;5075585;28;19923;-72
2023/04/14 00:51:12;;;;;;;;;;;8.70;99.90;;;;;;5074874;28;19914;-74
2023/04/14 00:53:38;;;;;;;;;;;8.60;99.90;;;;;;5074017;28;19912;-74
2023/04/14 00:56:04;;;;;;;;;;;8.60;99.90;;;;;;5075490;28;20343;-73
2023/04/14 00:58:30;;;;;;;;;;;8.60;99.90;;;;;;5075452;28;19909;-73
2023/04/14 01:00:57;;;;;;;;;;;8.60;99.90;;;;;;5075216;28;19915;-73
2023/04/14 01:03:23;;;;;;;;;;;8.60;99.90;;;;;;5073616;28;19909;-72
2023/04/14 01:05:49;;;;;;;;;;;8.60;99.90;;;;;;5074207;28;19948;-73
2023/04/14 01:08:15;;;;;;;;;;;8.60;99.90;;;;;;5072383;28;19908;-73
2023/04/14 01:10:45;;;;;;;;;;;8.50;99.90;;;;;;5073585;28;19915;-74
2023/04/14 01:13:32;;;;;;;;;;;8.50;99.90;;;;;;5074626;28;19912;-73
2023/04/14 01:16:08;;;;;;;;;;;8.50;99.90;;;;;;5073475;28;19944;-74
2023/04/14 01:18:44;;;;;;;;;;;8.40;99.90;;;;;;5074177;28;19924;-72
2023/04/14 01:21:13;;;;;;;;;;;8.40;99.90;;;;;;5072776;28;20351;-74
2023/04/14 01:23:41;;;;;;;;;;;8.40;99.90;;;;;;5071715;28;19916;-73
2023/04/14 01:26:24;;;;;;;;;;;8.40;99.90;;;;;;5070943;28;19908;-73
2023/04/14 01:29:02;;;;;;;;;;;8.50;99.90;;;;;;5071616;28;20247;-74
2023/04/14 01:31:29;;;;;;;;;;;8.60;99.90;;;;;;5071595;28;20006;-74
2023/04/14 01:34:13;;;;;;;;;;;8.60;99.90;;;;;;5073063;28;19915;-72
2023/04/14 01:36:43;;;;;;;;;;;8.60;99.90;;;;;;5071358;28;19908;-73
2023/04/14 01:39:13;;;;;;;;;;;8.60;99.90;;;;;;5073425;28;19916;-73
2023/04/14 01:41:42;;;;;;;;;;;8.70;99.90;;;;;;5072850;28;19952;-74
2023/04/14 01:44:08;;;;;;;;;;;8.70;99.90;;;;;;5073036;28;19908;-74
2023/04/14 01:46:35;;;;;;;;;;;8.70;99.90;;;;;;5072192;28;19908;-78
2023/04/14 01:49:01;;;;;;;;;;;8.70;99.90;;;;;;5072925;28;19987;-73
2023/04/14 01:51:28;;;;;;;;;;;8.70;99.90;;;;;;5072188;28;19947;-74
2023/04/14 01:53:55;;;;;;;;;;;8.80;99.90;;;;;;5073028;28;19995;-73
2023/04/14 01:56:22;;;;;;;;;;;8.80;99.90;;;;;;5072682;28;19962;-74
2023/04/14 01:58:48;;;;;;;;;;;8.90;99.90;;;;;;5073367;28;19915;-75
2023/04/14 02:01:15;;;;;;;;;;;8.90;99.90;;;;;;5075000;28;20007;-74
2023/04/14 02:03:41;;;;;;;;;;;8.90;99.90;;;;;;5075789;28;19943;-74
2023/04/14 02:06:07;;;;;;;;;;;8.90;99.90;;;;;;5074877;28;19909;-74
2023/04/14 02:08:36;;;;;;;;;;;9.00;99.90;;;;;;5075384;28;19909;-74
2023/04/14 02:11:03;;;;;;;;;;;9.00;99.90;;;;;;5076316;28;19967;-74
2023/04/14 02:13:31;;;;;;;;;;;9.00;99.90;;;;;;5077671;28;19912;-76
2023/04/14 02:15:57;;;;;;;;;;;9.00;99.90;;;;;;5077318;28;19938;-72
2023/04/14 02:18:22;;;;;;;;;;;9.10;99.90;;;;;;5076621;28;19909;-72
2023/04/14 02:20:51;;;;;;;;;;;9.00;99.90;;;;;;5078026;28;19917;-74
2023/04/14 02:23:17;;;;;;;;;;;9.00;99.90;;;;;;5077298;28;19913;-72
2023/04/14 02:25:54;;;;;;;;;;;9.00;99.90;;;;;;5076317;28;19923;-73
2023/04/14 02:28:21;;;;;;;;;;;9.00;99.90;;;;;;5078984;28;19908;-74
2023/04/14 02:30:49;;;;;;;;;;;9.00;99.90;;;;;;5078672;28;20426;-75
2023/04/14 02:33:28;;;;;;;;;;;9.10;99.90;;;;;;5078674;28;19912;-74
2023/04/14 02:36:01;;;;;;;;;;;9.10;99.90;;;;;;5077910;28;19908;-73
2023/04/14 02:38:29;;;;;;;;;;;9.10;99.90;;;;;;5079446;28;20017;-74
2023/04/14 02:40:55;;;;;;;;;;;9.20;99.90;;;;;;5082881;28;19920;-72
2023/04/14 02:43:25;;;;;;;;;;;9.30;99.90;;;;;;5082115;28;19934;-74
2023/04/14 02:45:51;;;;;;;;;;;9.30;99.90;;;;;;5082242;28;19916;-74
2023/04/14 02:48:18;;;;;;;;;;;9.30;99.90;;;;;;5082475;28;19930;-76
2023/04/14 02:50:46;;;;;;;;;;;9.30;99.90;;;;;;5082207;28;19912;-74
2023/04/14 02:53:15;;;;;;;;;;;9.30;99.90;;;;;;5082381;28;19912;-74
2023/04/14 02:55:41;;;;;;;;;;;9.40;99.90;;;;;;5081866;28;19909;-74
2023/04/14 02:58:07;;;;;;;;;;;9.40;99.90;;;;;;5081814;28;19916;-75
2023/04/14 03:00:33;;;;;;;;;;;9.50;99.90;;;;;;5079758;28;20378;-75
2023/04/14 03:03:00;;;;;;;;;;;9.50;99.90;;;;;;5079363;28;19916;-73
2023/04/14 03:05:25;;;;;;;;;;;9.50;99.90;;;;;;5081166;28;19912;-74
2023/04/14 03:07:52;;;;;;;;;;;9.50;99.90;;;;;;5078462;28;19908;-74
2023/04/14 03:10:18;;;;;;;;;;;9.60;99.90;;;;;;5077608;28;19930;-75
2023/04/14 03:12:45;;;;;;;;;;;9.50;99.90;;;;;;5081486;28;19912;-74
2023/04/14 03:15:11;;;;;;;;;;;9.50;99.90;;;;;;5081339;28;20367;-74
2023/04/14 03:17:37;;;;;;;;;;;9.60;99.90;;;;;;5081241;28;19923;-73
2023/04/14 03:20:04;;;;;;;;;;;9.50;99.90;;;;;;5081316;28;19915;-74
2023/04/14 03:22:30;;;;;;;;;;;9.50;99.90;;;;;;5080197;28;19912;-73
2023/04/14 03:24:57;;;;;;;;;;;9.50;99.90;;;;;;5079549;28;19952;-75
2023/04/14 03:27:26;;;;;;;;;;;9.50;99.90;;;;;;5077153;28;19927;-73
2023/04/14 03:29:54;;;;;;;;;;;9.50;99.90;;;;;;5078953;28;19908;-76
2023/04/14 03:32:21;;;;;;;;;;;9.50;99.90;;;;;;5079879;28;19974;-76
2023/04/14 03:34:49;;;;;;;;;;;9.50;99.90;;;;;;5078301;28;19912;-72
2023/04/14 03:37:16;;;;;;;;;;;9.50;99.90;;;;;;5076829;28;19924;-74
2023/04/14 03:39:42;;;;;;;;;;;9.50;99.90;;;;;;5079355;28;19916;-74
2023/04/14 03:42:10;;;;;;;;;;;9.50;99.90;;;;;;5079157;28;19915;-72
2023/04/14 03:44:37;;;;;;;;;;;9.40;99.90;;;;;;5079518;28;19912;-74
2023/04/14 03:47:07;;;;;;;;;;;9.50;99.90;;;;;;5077982;28;19916;-74
2023/04/14 03:49:35;;;;;;;;;;;9.50;99.90;;;;;;5078942;28;19940;-76
2023/04/14 03:52:04;;;;;;;;;;;9.60;99.90;;;;;;5075805;28;19916;-74
2023/04/14 03:54:31;;;;;;;;;;;9.60;99.90;;;;;;5079182;28;19999;-73
2023/04/14 03:56:57;;;;;;;;;;;9.50;99.90;;;;;;5079272;28;19913;-74
2023/04/14 03:59:25;;;;;;;;;;;9.50;99.90;;;;;;5078180;28;19981;-74
2023/04/14 04:01:51;;;;;;;;;;;9.50;99.90;;;;;;5077307;28;19912;-72
2023/04/14 04:04:17;;;;;;;;;;;9.50;99.90;;;;;;5076984;28;19908;-73
2023/04/14 04:06:43;;;;;;;;;;;9.40;99.90;;;;;;5076816;28;19915;-73
2023/04/14 04:09:13;;;;;;;;;;;9.50;99.90;;;;;;5077260;28;19908;-76
2023/04/14 04:11:40;;;;;;;;;;;9.40;99.90;;;;;;5077634;28;19909;-74
2023/04/14 04:14:07;;;;;;;;;;;9.40;99.90;;;;;;5077627;28;19908;-74
2023/04/14 04:16:34;;;;;;;;;;;9.40;99.90;;;;;;5076847;28;19931;-76
2023/04/14 04:19:03;;;;;;;;;;;9.30;99.90;;;;;;5078451;28;20117;-75
2023/04/14 04:21:31;;;;;;;;;;;9.20;99.90;;;;;;5077430;28;19951;-75
2023/04/14 04:23:58;;;;;;;;;;;9.20;99.90;;;;;;5076799;28;19962;-74
2023/04/14 04:26:24;;;;;;;;;;;9.20;99.90;;;;;;5075161;28;19909;-74
2023/04/14 04:28:50;;;;;;;;;;;9.20;99.90;;;;;;5076534;28;19915;-74
2023/04/14 04:31:16;;;;;;;;;;;9.10;99.90;;;;;;5076277;28;20293;-74
2023/04/14 04:33:44;;;;;;;;;;;9.10;99.90;;;;;;5075698;28;19912;-73
2023/04/14 04:36:13;;;;;;;;;;;9.10;99.90;;;;;;5075971;28;19908;-74
2023/04/14 04:38:38;;;;;;;;;;;9.00;99.90;;;;;;5078289;28;19908;-75
2023/04/14 04:41:05;;;;;;;;;;;9.00;99.90;;;;;;5076675;28;19915;-73
2023/04/14 04:43:30;;;;;;;;;;;9.00;99.90;;;;;;5076158;28;19912;-74
2023/04/14 04:46:08;;;;;;;;;;;8.90;99.90;;;;;;5077000;28;19908;-73
2023/04/14 04:48:34;;;;;;;;;;;8.90;99.90;;;;;;5075493;28;19909;-74
2023/04/14 04:50:59;;;;;;;;;;;8.90;99.90;;;;;;5076477;28;19915;-74
2023/04/14 04:53:25;;;;;;;;;;;8.90;99.90;;;;;;5075713;28;20378;-76
2023/04/14 04:55:51;;;;;;;;;;;8.80;99.90;;;;;;5076893;28;19938;-73
2023/04/14 04:58:16;;;;;;;;;;;8.80;99.90;;;;;;5076666;28;19931;-78
2023/04/14 05:00:42;;;;;;;;;;;8.80;99.90;;;;;;5077075;28;19939;-74
2023/04/14 05:03:10;;;;;;;;;;;8.90;99.90;;;;;;5074795;28;20015;-73
2023/04/14 05:05:36;;;;;;;;;;;8.90;99.90;;;;;;5076673;28;19955;-73
2023/04/14 05:08:01;;;;;;;;;;;8.90;99.90;;;;;;5075732;28;19915;-78
2023/04/14 05:10:27;;;;;;;;;;;8.90;99.90;;;;;;5076996;28;19909;-73
2023/04/14 05:12:53;;;;;;;;;;;9.00;99.90;;;;;;5075780;28;20294;-74
2023/04/14 05:15:18;;;;;;;;;;;9.00;99.90;;;;;;5074306;28;19940;-69
2023/04/14 05:17:44;;;;;;;;;;;9.00;99.90;;;;;;5075739;28;19909;-75
2023/04/14 05:20:10;;;;;;;;;;;9.00;99.90;;;;;;5075958;28;19909;-73
2023/04/14 05:22:36;;;;;;;;;;;9.00;99.90;;;;;;5074707;28;20007;-74
2023/04/14 05:25:01;;;;;;;;;;;8.90;99.90;;;;;;5074549;28;19947;-75
2023/04/14 05:27:27;;;;;;;;;;;9.00;99.90;;;;;;5076175;28;19931;-76
2023/04/14 05:29:53;;;;;;;;;;;9.00;99.90;;;;;;5074916;28;19913;-76
2023/04/14 05:32:20;;;;;;;;;;;9.00;99.90;;;;;;5076149;28;20272;-74
2023/04/14 05:34:45;;;;;;;;;;;9.00;99.90;;;;;;5076262;28;19909;-74
2023/04/14 05:37:11;;;;;;;;;;;9.00;99.90;;;;;;5076842;28;20359;-76
2023/04/14 05:39:37;;;;;;;;;;;9.00;99.90;;;;;;5074150;28;19919;-74
2023/04/14 05:42:02;;;;;;;;;;;9.10;99.90;;;;;;5076053;28;19909;-73
2023/04/14 05:44:28;;;;;;;;;;;9.10;99.90;;;;;;5075745;28;19932;-73
2023/04/14 05:46:54;;;;;;;;;;;9.10;99.90;;;;;;5075698;28;19908;-74
2023/04/14 05:49:20;;;;;;;;;;;9.10;99.90;;;;;;5076118;28;19909;-76
2023/04/14 05:51:45;;;;;;;;;;;9.20;99.90;;;;;;5074886;28;19923;-74
2023/04/14 05:54:11;;;;;;;;;;;9.20;99.90;;;;;;5075795;28;19950;-74
2023/04/14 05:56:37;;;;;;;;;;;9.20;99.90;;;;;;5074157;28;19912;-73
2023/04/14 05:59:03;;;;;;;;;;;9.30;99.90;;;;;;5074425;28;20367;-73
2023/04/14 06:01:28;;;;;;;;;;;9.20;99.90;;;;;;5074788;28;19919;-79
2023/04/14 06:03:54;;;;;;;;;;;9.20;99.90;;;;;;5076098;28;20393;-77
2023/04/14 06:06:20;;;;;;;;;;;9.30;99.90;;;;;;5074149;28;19915;-74
2023/04/14 06:08:45;;;;;;;;;;;9.50;99.90;;;;;;5075471;28;19915;-73
2023/04/14 06:11:12;;;;;;;;;;;9.50;99.90;;;;;;5074862;28;19916;-73
2023/04/14 06:13:38;;;;;;;;;;;9.50;99.90;;;;;;5075586;28;19917;-74
2023/04/14 06:16:04;;;;;;;;;;;9.50;99.90;;;;;;5077312;28;19935;-75
2023/04/14 06:18:30;;;;;;;;;;;9.40;99.90;;;;;;5077728;28;19948;-74
2023/04/14 06:20:55;;;;;;;;;;;9.50;99.90;;;;;;5077204;28;20293;-75
2023/04/14 06:23:21;;;;;;;;;;;9.60;99.90;;;;;;5076948;28;19919;-75
2023/04/14 06:25:47;;;;;;;;;;;9.60;99.90;;;;;;5078499;28;19909;-77
2023/04/14 06:28:13;;;;;;;;;;;9.60;99.90;;;;;;5079160;28;20258;-79
2023/04/14 06:30:39;;;;;;;;;;;9.60;99.90;;;;;;5077516;28;19909;-74
2023/04/14 06:33:05;;;;;;;;;;;9.70;99.90;;;;;;5077788;28;19923;-74
2023/04/14 06:35:33;;;;;;;;;;;9.70;99.90;;;;;;5079077;28;19931;-74
2023/04/14 06:38:00;;;;;;;;;;;9.80;99.90;;;;;;5079382;28;19908;-74
2023/04/14 06:40:25;;;;;;;;;;;9.80;99.90;;;;;;5077855;28;20014;-73
2023/04/14 06:42:51;;;;;;;;;;;9.80;99.90;;;;;;5078098;28;20350;-73
2023/04/14 06:45:17;;;;;;;;;;;9.90;99.90;;;;;;5077592;28;19909;-72
2023/04/14 06:47:42;;;;;;;;;;;9.80;99.90;;;;;;5077722;28;20423;-73
2023/04/14 06:50:08;;;;;;;;;;;9.80;99.90;;;;;;5078941;28;19912;-75
2023/04/14 06:52:34;;;;;;;;;;;9.90;99.90;;;;;;5079025;28;19980;-74
2023/04/14 06:54:59;;;;;;;;;;;10.00;99.90;;;;;;5077931;28;19908;-75
2023/04/14 06:57:26;;;;;;;;;;;9.90;99.90;;;;;;5080483;28;19916;-74
2023/04/14 06:59:51;;;;;;;;;;;10.00;99.90;;;;;;5079429;28;20323;-74
2023/04/14 07:02:17;;;;;;;;;;;10.00;99.90;;;;;;5079144;28;19940;-73
2023/04/14 07:04:42;;;;;;;;;;;10.10;99.90;;;;;;5079246;28;19908;-74
2023/04/14 07:07:08;;;;;;;;;;;10.10;99.90;;;;;;5079761;28;19905;-74
2023/04/14 07:09:34;;;;;;;;;;;10.10;99.90;;;;;;5079233;28;19913;-74
2023/04/14 07:12:00;;;;;;;;;;;10.10;99.90;;;;;;5078432;28;19935;-73
2023/04/14 07:14:26;;;;;;;;;;;10.10;99.90;;;;;;5080337;28;19931;-74
2023/04/14 07:16:52;;;;;;;;;;;10.20;99.90;;;;;;5078649;28;19909;-73
2023/04/14 07:19:18;;;;;;;;;;;10.20;99.90;;;;;;5078769;28;19916;-73
2023/04/14 07:21:47;;;;;;;;;;;10.10;99.90;;;;;;5079382;28;19912;-74
2023/04/14 07:24:13;;;;;;;;;;;10.10;99.90;;;;;;5078461;28;19917;-73
2023/04/14 07:26:38;;;;;;;;;;;10.10;99.90;;;;;;5078639;28;19947;-74
2023/04/14 07:29:04;;;;;;;;;;;10.10;99.90;;;;;;5079799;28;20014;-74
2023/04/14 07:31:32;;;;;;;;;;;10.10;99.90;;;;;;5079289;28;19991;-74
2023/04/14 07:34:01;;;;;;;;;;;10.20;99.90;;;;;;5078292;28;19919;-74
2023/04/14 07:36:27;;;;;;;;;;;10.30;99.90;;;;;;5080676;28;19909;-73
2023/04/14 07:38:53;;;;;;;;;;;10.40;99.90;;;;;;5079431;28;19970;-74
2023/04/14 07:41:18;;;;;;;;;;;10.40;99.90;;;;;;5079870;28;20424;-74
2023/04/14 07:43:44;;;;;;;;;;;10.40;99.90;;;;;;5079930;28;20381;-73
2023/04/14 07:46:10;;;;;;;;;;;10.40;99.90;;;;;;5078174;28;20404;-76
2023/04/14 07:48:36;;;;;;;;;;;10.50;99.90;;;;;;5079640;28;19909;-74
2023/04/14 07:51:05;;;;;;;;;;;10.50;99.90;;;;;;5077375;28;19920;-74
2023/04/14 07:53:31;;;;;;;;;;;10.50;99.90;;;;;;5079155;28;19912;-74
2023/04/14 07:55:57;;;;;;;;;;;10.60;99.90;;;;;;5076042;28;19955;-73
2023/04/14 07:58:23;;;;;;;;;;;10.60;99.90;;;;;;5078303;28;20370;-74
2023/04/14 08:00:49;;;;;;;;;;;10.60;99.90;;;;;;5078690;28;20358;-76
2023/04/14 08:03:15;;;;;;;;;;;10.60;99.90;;;;;;5076842;28;20006;-74
2023/04/14 08:05:41;;;;;;;;;;;10.60;99.90;;;;;;5078012;28;19951;-73
2023/04/14 08:08:08;;;;;;;;;;;10.60;99.90;;;;;;5077374;28;19908;-77
2023/04/14 08:10:35;;;;;;;;;;;10.70;99.90;;;;;;5078054;28;19916;-74
2023/04/14 08:13:00;;;;;;;;;;;10.70;99.90;;;;;;5077457;28;19999;-74
2023/04/14 08:15:26;;;;;;;;;;;10.70;99.90;;;;;;5076996;28;19950;-73
2023/04/14 08:17:52;;;;;;;;;;;10.80;99.90;;;;;;5076268;28;19908;-74
2023/04/14 08:20:17;;;;;;;;;;;10.90;99.90;;;;;;5076333;28;20397;-73
2023/04/14 08:22:43;;;;;;;;;;;10.90;99.90;;;;;;5076630;28;20290;-74
2023/04/14 08:25:11;;;;;;;;;;;11.00;99.90;;;;;;5075037;28;19916;-74
2023/04/14 08:27:37;;;;;;;;;;;11.00;99.90;;;;;;5076565;28;19952;-74
2023/04/14 08:30:03;;;;;;;;;;;11.10;99.90;;;;;;5077466;28;19909;-74
2023/04/14 08:32:28;;;;;;;;;;;11.10;99.90;;;;;;5074767;28;19912;-73
2023/04/14 08:34:54;;;;;;;;;;;11.10;99.90;;;;;;5074971;28;19919;-74
2023/04/14 08:37:21;;;;;;;;;;;11.20;99.90;;;;;;5074577;28;20354;-74
2023/04/14 08:39:47;;;;;;;;;;;11.30;99.90;;;;;;5076603;28;19916;-74
2023/04/14 08:42:14;;;;;;;;;;;11.40;99.90;;;;;;5076319;28;19916;-72
2023/04/14 08:44:40;;;;;;;;;;;11.50;99.90;;;;;;5076829;28;19980;-74
2023/04/14 08:47:06;;;;;;;;;;;11.50;99.90;;;;;;5076148;28;20009;-74
2023/04/14 08:49:39;;;;;;;;;;;11.60;99.90;;;;;;5076365;28;19974;-74
2023/04/14 08:52:07;;;;;;;;;;;11.80;99.90;;;;;;5076090;28;19916;-74
2023/04/14 08:54:33;;;;;;;;;;;12.00;99.90;;;;;;5076695;28;19912;-75
2023/04/14 08:56:59;;;;;;;;;;;12.00;99.90;;;;;;5076369;28;19915;-74
2023/04/14 08:59:26;;;;;;;;;;;12.10;99.90;;;;;;5076563;28;20358;-74
2023/04/14 09:01:52;;;;;;;;;;;12.20;99.90;;;;;;5075944;28;19916;-75
2023/04/14 09:04:19;;;;;;;;;;;12.20;99.90;;;;;;5076732;28;19908;-73
2023/04/14 09:06:44;;;;;;;;;;;12.20;99.90;;;;;;5077405;28;20346;-74
2023/04/14 09:09:10;;;;;;;;;;;12.20;99.90;;;;;;5076654;28;19909;-74
2023/04/14 09:11:36;;;;;;;;;;;12.20;99.90;;;;;;5076027;28;20286;-76
2023/04/14 09:14:02;;;;;;;;;;;12.20;99.90;;;;;;5076498;28;19908;-74
2023/04/14 09:16:28;;;;;;;;;;;12.20;99.90;;;;;;5076331;28;19915;-77
2023/04/14 09:18:55;;;;;;;;;;;12.10;99.90;;;;;;5074813;28;19909;-74
2023/04/14 09:21:21;;;;;;;;;;;12.00;99.90;;;;;;5074556;28;20007;-74
2023/04/14 09:23:46;;;;;;;;;;;12.00;99.90;;;;;;5075917;28;20147;-77
2023/04/14 09:26:12;;;;;;;;;;;12.00;99.90;;;;;;5074317;28;19913;-75
2023/04/14 09:28:38;;;;;;;;;;;12.00;99.90;;;;;;5076042;28;19952;-74
2023/04/14 09:31:04;;;;;;;;;;;12.10;99.90;;;;;;5074947;28;20286;-74
2023/04/14 09:33:30;;;;;;;;;;;12.10;99.90;;;;;;5073608;28;20007;-74
2023/04/14 09:35:56;;;;;;;;;;;12.10;99.90;;;;;;5074008;28;19991;-73
2023/04/14 09:38:32;;;;;;;;;;;12.10;99.90;;;;;;5074364;28;19947;-73
2023/04/14 09:40:58;;;;;;;;;;;12.00;99.90;;;;;;5074814;28;20267;-74
2023/04/14 09:43:25;;;;;;;;;;;12.10;99.90;;;;;;5074640;28;19916;-73
2023/04/14 09:45:51;;;;;;;;;;;12.10;99.90;;;;;;5073963;28;19920;-74
2023/04/14 09:48:18;;;;;;;;;;;12.00;99.90;;;;;;5074912;28;20274;-74
2023/04/14 09:50:57;;;;;;;;;;;12.00;99.90;;;;;;5074504;28;20106;-74
2023/04/14 09:53:30;;;;;;;;;;;12.00;99.90;;;;;;5074288;28;20382;-75
2023/04/14 09:55:56;;;;;;;;;;;12.00;99.90;;;;;;5075275;28;20314;-73
2023/04/14 09:58:22;;;;;;;;;;;12.00;99.90;;;;;;5076121;28;19997;-72
2023/04/14 10:00:51;;;;;;;;;;;12.00;99.90;;;;;;5075376;28;20021;-76
2023/04/14 10:03:30;;;;;;;;;;;12.10;99.90;;;;;;5076423;28;19916;-74
2023/04/14 10:05:56;;;;;;;;;;;12.10;99.90;;;;;;5075061;28;20000;-71
2023/04/14 10:08:32;;;;;;;;;;;12.00;99.90;;;;;;5078380;28;19932;-74
2023/04/14 10:11:11;;;;;;;;;;;12.00;99.90;;;;;;5083528;28;19909;-74
2023/04/14 10:13:37;;;;;;;;;;;11.90;99.90;;;;;;5082271;28;19912;-74
2023/04/14 10:16:04;;;;;;;;;;;11.90;99.90;;;;;;5083391;28;19962;-73
2023/04/14 10:18:30;;;;;;;;;;;11.90;99.90;;;;;;5082744;28;19915;-74
2023/04/14 10:20:55;;;;;;;;;;;12.00;99.90;;;;;;5079880;28;19908;-74
2023/04/14 10:23:21;;;;;;;;;;;12.00;99.90;;;;;;5075643;28;19912;-73
2023/04/14 10:25:48;;;;;;;;;;;12.00;99.90;;;;;;5074721;28;19976;-73
2023/04/14 10:28:14;;;;;;;;;;;12.00;99.90;;;;;;5076351;28;19909;-74
2023/04/14 10:30:42;;;;;;;;;;;12.00;99.90;;;;;;5078547;28;19915;-74
2023/04/14 10:33:08;;;;;;;;;;;11.90;99.90;;;;;;5084199;28;19912;-72
2023/04/14 10:35:40;;;;;;;;;;;12.00;99.90;;;;;;5083451;28;19909;-71
2023/04/14 10:38:06;;;;;;;;;;;12.10;99.90;;;;;;5081302;28;19908;-74
2023/04/14 10:40:45;;;;;;;;;;;12.10;99.90;;;;;;5081277;28;19908;-73
2023/04/14 10:43:11;;;;;;;;;;;12.10;99.90;;;;;;5083176;28;19908;-75
2023/04/14 10:45:56;;;;;;;;;;;12.10;99.90;;;;;;5080628;28;20396;-75
2023/04/14 10:48:27;;;;;;;;;;;12.20;99.90;;;;;;5080557;28;19936;-72
2023/04/14 10:51:00;;;;;;;;;;;12.20;99.90;;;;;;5083129;28;19943;-73
2023/04/14 10:53:26;;;;;;;;;;;12.20;99.90;;;;;;5080783;28;19916;-73
2023/04/14 10:55:55;;;;;;;;;;;12.30;99.90;;;;;;5077332;28;19916;-75
2023/04/14 10:58:21;;;;;;;;;;;12.40;99.90;;;;;;5076179;28;19909;-75
2023/04/14 11:00:47;;;;;;;;;;;12.30;99.90;;;;;;5077623;28;19908;-74
2023/04/14 11:03:16;;;;;;;;;;;12.30;99.90;;;;;;5079382;28;19931;-74
2023/04/14 11:05:51;;;;;;;;;;;12.50;99.90;;;;;;5078741;28;19909;-74
2023/04/14 11:08:24;;;;;;;;;;;12.60;99.90;;;;;;5077281;28;20294;-73
2023/04/14 11:10:52;;;;;;;;;;;12.60;99.90;;;;;;5079098;28;19931;-76
2023/04/14 11:13:19;;;;;;;;;;;12.70;99.90;;;;;;5077002;28;19912;-75
2023/04/14 11:15:47;;;;;;;;;;;12.60;99.90;;;;;;5078703;28;19991;-74
2023/04/14 11:18:33;;;;;;;;;;;12.70;99.90;;;;;;5079061;28;19909;-77
2023/04/14 11:21:03;;;;;;;;;;;12.90;99.90;;;;;;5074022;28;19909;-73
2023/04/14 11:23:29;;;;;;;;;;;13.10;99.90;;;;;;5078475;28;19923;-79
2023/04/14 11:25:56;;;;;;;;;;;13.20;99.90;;;;;;5076414;28;19993;-80
2023/04/14 11:28:28;;;;;;;;;;;13.20;99.90;;;;;;5078645;28;19908;-77
2023/04/14 11:30:56;;;;;;;;;;;13.40;99.90;;;;;;5076539;28;20394;-77
2023/04/14 11:33:21;;;;;;;;;;;13.50;99.90;;;;;;5076293;28;20321;-75
2023/04/14 11:35:47;;;;;;;;;;;13.60;99.90;;;;;;5077272;28;19909;-74
2023/04/14 11:38:13;;;;;;;;;;;13.70;99.90;;;;;;5078064;28;20003;-75
2023/04/14 11:40:39;;;;;;;;;;;13.70;99.90;;;;;;5076336;28;20034;-75
2023/04/14 11:43:05;;;;;;;;;;;14.00;99.90;;;;;;5077336;28;20370;-75
2023/04/14 11:45:31;;;;;;;;;;;14.10;99.90;;;;;;5076467;28;19912;-74
2023/04/14 11:47:58;;;;;;;;;;;14.10;99.90;;;;;;5077537;28;19915;-75
2023/04/14 11:50:24;;;;;;;;;;;14.20;99.90;;;;;;5085371;28;19909;-75
2023/04/14 11:52:49;;;;;;;;;;;14.30;99.90;;;;;;5084422;28;19923;-75
2023/04/14 11:55:15;;;;;;;;;;;14.20;99.90;;;;;;5086052;28;19966;-75
2023/04/14 11:57:44;;;;;;;;;;;14.20;99.90;;;;;;5084260;28;19983;-73
2023/04/14 12:00:11;;;;;;;;;;;14.20;99.90;;;;;;5083468;28;19915;-74
2023/04/14 12:02:37;;;;;;;;;;;14.20;99.90;;;;;;5077428;28;19909;-74
2023/04/14 12:05:02;;;;;;;;;;;14.10;99.90;;;;;;5077423;28;19909;-75
2023/04/14 12:07:29;;;;;;;;;;;14.30;99.90;;;;;;5077328;28;20354;-75
2023/04/14 12:09:56;;;;;;;;;;;14.30;99.90;;;;;;5076407;28;19919;-74
2023/04/14 12:12:22;;;;;;;;;;;14.30;99.90;;;;;;5083633;28;19912;-75
2023/04/14 12:14:48;;;;;;;;;;;14.30;99.90;;;;;;5086099;28;19999;-74
2023/04/14 12:17:15;;;;;;;;;;;14.40;99.90;;;;;;5084176;28;19954;-75
2023/04/14 12:19:41;;;;;;;;;;;14.40;99.90;;;;;;5085588;28;19964;-73
2023/04/14 12:22:08;;;;;;;;;;;14.50;99.90;;;;;;5083059;28;19930;-74
2023/04/14 12:24:34;;;;;;;;;;;14.50;99.90;;;;;;5076111;28;19916;-72
2023/04/14 12:27:03;;;;;;;;;;;14.50;99.90;;;;;;5075682;28;19958;-74
2023/04/14 12:29:30;;;;;;;;;;;14.30;99.90;;;;;;5075145;28;19916;-75
2023/04/14 12:31:55;;;;;;;;;;;14.10;99.90;;;;;;5077781;28;20002;-75
2023/04/14 12:34:24;;;;;;;;;;;14.00;99.90;;;;;;5077777;28;19958;-74
2023/04/14 12:36:53;;;;;;;;;;;14.10;99.90;;;;;;5077716;28;19912;-73
2023/04/14 12:39:21;;;;;;;;;;;14.10;99.90;;;;;;5076173;28;20281;-74
2023/04/14 12:41:47;;;;;;;;;;;13.90;99.90;;;;;;5076620;28;19915;-74
2023/04/14 12:44:17;;;;;;;;;;;13.90;99.90;;;;;;5075546;28;19909;-74
2023/04/14 12:46:47;;;;;;;;;;;13.80;99.90;;;;;;5074322;28;19962;-73
2023/04/14 12:49:29;;;;;;;;;;;13.50;99.90;;;;;;5075265;28;20377;-74
2023/04/14 12:51:55;;;;;;;;;;;13.30;99.90;;;;;;5074967;28;20302;-73
2023/04/14 12:54:21;;;;;;;;;;;13.00;99.90;;;;;;5075220;28;19923;-73
2023/04/14 12:56:46;;;;;;;;;;;12.80;99.90;;;;;;5074843;28;19915;-74
2023/04/14 12:59:13;;;;;;;;;;;12.70;99.90;;;;;;5075862;28;19948;-74
2023/04/14 13:01:39;;;;;;;;;;;12.70;99.90;;;;;;5076243;28;19954;-74
2023/04/14 13:04:05;;;;;;;;;;;12.70;99.90;;;;;;5075986;28;19915;-74
2023/04/14 13:06:30;;;;;;;;;;;12.70;99.90;;;;;;5075229;28;19909;-74
2023/04/14 13:08:57;;;;;;;;;;;12.50;99.90;;;;;;5074755;28;19909;-73
2023/04/14 13:11:23;;;;;;;;;;;12.50;99.90;;;;;;5074592;28;19909;-74
2023/04/14 13:13:49;;;;;;;;;;;12.50;99.90;;;;;;5074297;28;19927;-74
2023/04/14 13:16:15;;;;;;;;;;;12.50;99.90;;;;;;5075621;28;19908;-74
2023/04/14 13:18:41;;;;;;;;;;;12.50;99.90;;;;;;5075682;28;19916;-74
2023/04/14 13:21:06;;;;;;;;;;;12.50;99.90;;;;;;5075993;28;19909;-74
2023/04/14 13:23:32;;;;;;;;;;;12.40;99.90;;;;;;5075458;28;19970;-73
2023/04/14 13:25:58;;;;;;;;;;;12.40;99.90;;;;;;5074757;28;19913;-74
2023/04/14 13:28:24;;;;;;;;;;;12.50;99.90;;;;;;5073863;28;19915;-74
2023/04/14 13:30:51;;;;;;;;;;;12.50;99.90;;;;;;5075313;28;19909;-74
2023/04/14 13:33:17;;;;;;;;;;;12.60;99.90;;;;;;5074836;28;19912;-77
2023/04/14 13:35:43;;;;;;;;;;;12.60;99.90;;;;;;5075469;28;19908;-74
2023/04/14 13:38:09;;;;;;;;;;;12.60;99.90;;;;;;5075225;28;19915;-74
2023/04/14 13:40:34;;;;;;;;;;;12.70;99.90;;;;;;5072964;28;19938;-73
2023/04/14 13:43:00;;;;;;;;;;;12.60;99.90;;;;;;5073222;28;19909;-72
2023/04/14 13:45:25;;;;;;;;;;;12.80;99.90;;;;;;5075088;28;20072;-74
2023/04/14 13:47:51;;;;;;;;;;;12.80;99.90;;;;;;5074672;28;19909;-74
2023/04/14 13:50:18;;;;;;;;;;;13.00;99.90;;;;;;5075844;28;19924;-75
2023/04/14 13:52:44;;;;;;;;;;;13.00;99.90;;;;;;5076226;28;19913;-74
2023/04/14 13:55:10;;;;;;;;;;;13.00;99.90;;;;;;5076187;28;19931;-76
2023/04/14 13:57:36;;;;;;;;;;;12.80;99.90;;;;;;5075090;28;19913;-73
2023/04/14 14:00:06;;;;;;;;;;;12.80;99.90;;;;;;5075832;28;19908;-73
2023/04/14 14:02:32;;;;;;;;;;;12.80;99.90;;;;;;5074443;28;20282;-74
2023/04/14 14:04:59;;;;;;;;;;;12.90;99.90;;;;;;5074097;28;20480;-74
2023/04/14 14:07:25;;;;;;;;;;;12.90;99.90;;;;;;5074147;28;20393;-73
2023/04/14 14:09:51;;;;;;;;;;;13.00;99.90;;;;;;5074670;28;19912;-73
2023/04/14 14:12:16;;;;;;;;;;;13.10;99.90;;;;;;5072353;28;19952;-74
2023/04/14 14:14:42;;;;;;;;;;;13.00;99.90;;;;;;5072506;28;20323;-73
2023/04/14 14:17:08;;;;;;;;;;;13.00;99.90;;;;;;5073349;28;20297;-73
2023/04/14 14:19:35;;;;;;;;;;;13.00;99.90;;;;;;5074156;28;20358;-73
2023/04/14 14:22:01;;;;;;;;;;;13.10;99.90;;;;;;5074035;28;19916;-73